sensor_id;sensor_type;location;lat;lon;timestamp;temperature;humidity
46440;DHT22;32138;50.966;6.968;2022-11-20T00:00:00;6.90;85.20
46440;DHT22;32138;50.966;6.968;2022-11-20T00:01:05;7.00;85.40
46440;DHT22;32138;50.966;6.968;2022-11-20T00:02:06;7.10;85.10
46440;DHT22;32138;50.966;6.968;2022-11-20T00:03:07;7.20;84.90
46440;DHT22;32138;50.966;6.968;2022-11-20T00:04:09;7.00;84.10
46440;DHT22;32138;50.966;6.968;2022-11-20T00:05:11;6.80;84.30
46440;DHT22;32138;50.966;6.968;2022-11-20T00:06:14;6.70;84.40
46440;DHT22;32138;50.966;6.968;2022-11-20T00:07:15;6.70;84.90
46440;DHT22;32138;50.966;6.968;2022-11-20T00:08:16;6.80;84.90
46440;DHT22;32138;50.966;6.968;2022-11-20T00:09:17;6.70;84.80
46440;DHT22;32138;50.966;6.968;2022-11-20T00:10:18;6.80;84.80
46440;DHT22;32138;50.966;6.968;2022-11-20T00:11:20;6.70;84.80
46440;DHT22;32138;50.966;6.968;2022-11-20T00:12:22;6.80;84.80
46440;DHT22;32138;50.966;6.968;2022-11-20T00:13:23;6.80;85.10
46440;DHT22;32138;50.966;6.968;2022-11-20T00:14:23;6.90;85.20
46440;DHT22;32138;50.966;6.968;2022-11-20T00:15:24;6.90;85.30
46440;DHT22;32138;50.966;6.968;2022-11-20T00:16:27;7.00;84.90
46440;DHT22;32138;50.966;6.968;2022-11-20T00:17:28;7.00;84.90
46440;DHT22;32138;50.966;6.968;2022-11-20T00:18:29;6.90;84.80
46440;DHT22;32138;50.966;6.968;2022-11-20T00:19:30;7.00;84.80
46440;DHT22;32138;50.966;6.968;2022-11-20T00:20:31;7.00;84.20
46440;DHT22;32138;50.966;6.968;2022-11-20T00:21:32;7.00;84.10
46440;DHT22;32138;50.966;6.968;2022-11-20T00:22:32;6.90;84.30
46440;DHT22;32138;50.966;6.968;2022-11-20T00:23:34;7.00;84.40
46440;DHT22;32138;50.966;6.968;2022-11-20T00:24:34;7.00;84.50
46440;DHT22;32138;50.966;6.968;2022-11-20T00:25:35;6.80;84.00
46440;DHT22;32138;50.966;6.968;2022-11-20T00:26:36;6.70;84.50
46440;DHT22;32138;50.966;6.968;2022-11-20T00:27:37;6.60;84.80
46440;DHT22;32138;50.966;6.968;2022-11-20T00:28:38;6.80;84.70
46440;DHT22;32138;50.966;6.968;2022-11-20T00:29:39;6.90;84.60
46440;DHT22;32138;50.966;6.968;2022-11-20T00:30:39;6.90;84.60
46440;DHT22;32138;50.966;6.968;2022-11-20T00:31:40;6.90;84.20
46440;DHT22;32138;50.966;6.968;2022-11-20T00:32:41;6.80;83.90
46440;DHT22;32138;50.966;6.968;2022-11-20T00:33:43;6.70;84.00
46440;DHT22;32138;50.966;6.968;2022-11-20T00:34:43;6.50;84.30
46440;DHT22;32138;50.966;6.968;2022-11-20T00:35:44;6.60;84.90
46440;DHT22;32138;50.966;6.968;2022-11-20T00:36:45;6.50;84.70
46440;DHT22;32138;50.966;6.968;2022-11-20T00:37:46;6.40;84.70
46440;DHT22;32138;50.966;6.968;2022-11-20T00:38:46;6.50;84.80
46440;DHT22;32138;50.966;6.968;2022-11-20T00:39:51;6.60;84.50
46440;DHT22;32138;50.966;6.968;2022-11-20T00:40:59;6.50;84.40
46440;DHT22;32138;50.966;6.968;2022-11-20T00:42:00;6.60;84.50
46440;DHT22;32138;50.966;6.968;2022-11-20T00:43:01;6.60;84.30
46440;DHT22;32138;50.966;6.968;2022-11-20T00:44:02;6.70;84.40
46440;DHT22;32138;50.966;6.968;2022-11-20T00:45:03;6.80;85.10
46440;DHT22;32138;50.966;6.968;2022-11-20T00:46:09;7.00;84.20
46440;DHT22;32138;50.966;6.968;2022-11-20T00:47:12;7.00;84.20
46440;DHT22;32138;50.966;6.968;2022-11-20T00:48:13;7.00;84.30
46440;DHT22;32138;50.966;6.968;2022-11-20T00:49:14;7.00;84.40
46440;DHT22;32138;50.966;6.968;2022-11-20T00:50:14;7.10;84.60
46440;DHT22;32138;50.966;6.968;2022-11-20T00:51:17;7.10;83.60
46440;DHT22;32138;50.966;6.968;2022-11-20T00:52:19;7.10;83.60
46440;DHT22;32138;50.966;6.968;2022-11-20T00:53:20;7.10;83.70
46440;DHT22;32138;50.966;6.968;2022-11-20T00:54:21;7.00;83.50
46440;DHT22;32138;50.966;6.968;2022-11-20T00:55:21;6.90;83.70
46440;DHT22;32138;50.966;6.968;2022-11-20T00:56:22;6.80;84.30
46440;DHT22;32138;50.966;6.968;2022-11-20T00:57:23;6.90;83.90
46440;DHT22;32138;50.966;6.968;2022-11-20T00:58:25;6.90;84.20
46440;DHT22;32138;50.966;6.968;2022-11-20T00:59:29;6.80;84.00
46440;DHT22;32138;50.966;6.968;2022-11-20T01:00:30;6.90;84.00
46440;DHT22;32138;50.966;6.968;2022-11-20T01:01:31;6.80;83.40
46440;DHT22;32138;50.966;6.968;2022-11-20T01:02:32;6.60;83.80
46440;DHT22;32138;50.966;6.968;2022-11-20T01:03:38;6.60;84.20
46440;DHT22;32138;50.966;6.968;2022-11-20T01:04:40;6.70;83.80
46440;DHT22;32138;50.966;6.968;2022-11-20T01:05:41;6.60;84.20
46440;DHT22;32138;50.966;6.968;2022-11-20T01:06:41;6.70;84.40
46440;DHT22;32138;50.966;6.968;2022-11-20T01:07:42;6.90;84.30
46440;DHT22;32138;50.966;6.968;2022-11-20T01:08:44;7.00;84.00
46440;DHT22;32138;50.966;6.968;2022-11-20T01:09:45;7.00;84.00
46440;DHT22;32138;50.966;6.968;2022-11-20T01:10:45;6.90;84.20
46440;DHT22;32138;50.966;6.968;2022-11-20T01:11:46;7.00;84.40
46440;DHT22;32138;50.966;6.968;2022-11-20T01:12:47;7.10;84.20
46440;DHT22;32138;50.966;6.968;2022-11-20T01:14:12;7.20;84.00
46440;DHT22;32138;50.966;6.968;2022-11-20T01:15:14;7.10;84.20
46440;DHT22;32138;50.966;6.968;2022-11-20T01:16:21;7.10;83.90
46440;DHT22;32138;50.966;6.968;2022-11-20T01:17:31;7.10;84.10
46440;DHT22;32138;50.966;6.968;2022-11-20T01:18:32;7.20;84.30
46440;DHT22;32138;50.966;6.968;2022-11-20T01:19:32;7.10;83.80
46440;DHT22;32138;50.966;6.968;2022-11-20T01:20:36;6.90;83.30
46440;DHT22;32138;50.966;6.968;2022-11-20T01:21:39;6.90;83.50
46440;DHT22;32138;50.966;6.968;2022-11-20T01:22:42;7.00;83.30
46440;DHT22;32138;50.966;6.968;2022-11-20T01:23:43;7.00;83.60
46440;DHT22;32138;50.966;6.968;2022-11-20T01:24:44;7.00;83.00
46440;DHT22;32138;50.966;6.968;2022-11-20T01:25:45;6.90;83.60
46440;DHT22;32138;50.966;6.968;2022-11-20T01:26:48;7.00;83.70
46440;DHT22;32138;50.966;6.968;2022-11-20T01:27:50;6.80;84.00
46440;DHT22;32138;50.966;6.968;2022-11-20T01:28:51;6.80;83.20
46440;DHT22;32138;50.966;6.968;2022-11-20T01:29:53;6.60;83.40
46440;DHT22;32138;50.966;6.968;2022-11-20T01:30:54;6.60;83.70
46440;DHT22;32138;50.966;6.968;2022-11-20T01:31:55;6.60;83.80
46440;DHT22;32138;50.966;6.968;2022-11-20T01:32:55;6.70;83.80
46440;DHT22;32138;50.966;6.968;2022-11-20T01:33:58;6.80;84.10
46440;DHT22;32138;50.966;6.968;2022-11-20T01:35:00;6.60;84.00
46440;DHT22;32138;50.966;6.968;2022-11-20T01:36:05;6.70;84.30
46440;DHT22;32138;50.966;6.968;2022-11-20T01:37:06;6.60;84.30
46440;DHT22;32138;50.966;6.968;2022-11-20T01:38:07;6.70;84.00
46440;DHT22;32138;50.966;6.968;2022-11-20T01:39:17;6.80;84.20
46440;DHT22;32138;50.966;6.968;2022-11-20T01:40:19;6.70;83.40
46440;DHT22;32138;50.966;6.968;2022-11-20T01:41:20;6.80;84.10
46440;DHT22;32138;50.966;6.968;2022-11-20T01:42:47;6.80;84.00
46440;DHT22;32138;50.966;6.968;2022-11-20T01:44:14;6.80;83.80
46440;DHT22;32138;50.966;6.968;2022-11-20T01:47:05;7.00;83.90
46440;DHT22;32138;50.966;6.968;2022-11-20T01:48:07;6.90;83.70
46440;DHT22;32138;50.966;6.968;2022-11-20T01:49:16;6.70;84.40
46440;DHT22;32138;50.966;6.968;2022-11-20T01:50:28;6.80;83.90
46440;DHT22;32138;50.966;6.968;2022-11-20T01:53:50;6.60;84.00
46440;DHT22;32138;50.966;6.968;2022-11-20T01:55:06;6.70;84.00
46440;DHT22;32138;50.966;6.968;2022-11-20T01:56:10;6.70;84.00
46440;DHT22;32138;50.966;6.968;2022-11-20T01:57:12;6.80;84.10
46440;DHT22;32138;50.966;6.968;2022-11-20T01:58:14;6.90;84.20
46440;DHT22;32138;50.966;6.968;2022-11-20T01:59:18;6.80;84.20
46440;DHT22;32138;50.966;6.968;2022-11-20T02:00:20;6.70;83.90
46440;DHT22;32138;50.966;6.968;2022-11-20T02:01:22;6.60;84.00
46440;DHT22;32138;50.966;6.968;2022-11-20T02:02:23;6.50;84.40
46440;DHT22;32138;50.966;6.968;2022-11-20T02:03:24;6.60;84.70
46440;DHT22;32138;50.966;6.968;2022-11-20T02:04:25;6.70;84.60
46440;DHT22;32138;50.966;6.968;2022-11-20T02:07:50;6.80;84.70
46440;DHT22;32138;50.966;6.968;2022-11-20T02:08:52;6.90;84.40
46440;DHT22;32138;50.966;6.968;2022-11-20T02:09:53;6.90;84.30
46440;DHT22;32138;50.966;6.968;2022-11-20T02:10:54;6.90;84.00
46440;DHT22;32138;50.966;6.968;2022-11-20T02:11:55;6.80;84.30
46440;DHT22;32138;50.966;6.968;2022-11-20T02:12:56;6.70;84.40
46440;DHT22;32138;50.966;6.968;2022-11-20T02:14:16;6.60;84.50
46440;DHT22;32138;50.966;6.968;2022-11-20T02:15:18;6.70;85.00
46440;DHT22;32138;50.966;6.968;2022-11-20T02:16:37;6.60;84.80
46440;DHT22;32138;50.966;6.968;2022-11-20T02:17:38;6.70;84.90
46440;DHT22;32138;50.966;6.968;2022-11-20T02:18:40;6.80;85.00
46440;DHT22;32138;50.966;6.968;2022-11-20T02:19:41;6.70;84.90
46440;DHT22;32138;50.966;6.968;2022-11-20T02:20:44;6.60;85.00
46440;DHT22;32138;50.966;6.968;2022-11-20T02:22:03;6.70;84.80
46440;DHT22;32138;50.966;6.968;2022-11-20T02:23:12;6.80;84.70
46440;DHT22;32138;50.966;6.968;2022-11-20T02:24:34;6.80;84.40
46440;DHT22;32138;50.966;6.968;2022-11-20T02:25:35;6.90;84.60
46440;DHT22;32138;50.966;6.968;2022-11-20T02:27:04;7.00;84.70
46440;DHT22;32138;50.966;6.968;2022-11-20T02:28:08;6.90;84.30
46440;DHT22;32138;50.966;6.968;2022-11-20T02:29:09;6.80;84.50
46440;DHT22;32138;50.966;6.968;2022-11-20T02:30:10;6.90;84.20
46440;DHT22;32138;50.966;6.968;2022-11-20T02:31:11;6.70;83.80
46440;DHT22;32138;50.966;6.968;2022-11-20T02:32:23;6.60;84.20
46440;DHT22;32138;50.966;6.968;2022-11-20T02:33:27;6.80;84.40
46440;DHT22;32138;50.966;6.968;2022-11-20T02:34:28;6.90;85.00
46440;DHT22;32138;50.966;6.968;2022-11-20T02:36:30;7.00;84.30
46440;DHT22;32138;50.966;6.968;2022-11-20T02:37:35;6.90;84.40
46440;DHT22;32138;50.966;6.968;2022-11-20T02:38:37;6.80;84.70
46440;DHT22;32138;50.966;6.968;2022-11-20T02:39:39;6.80;84.60
46440;DHT22;32138;50.966;6.968;2022-11-20T02:40:41;6.70;84.60
46440;DHT22;32138;50.966;6.968;2022-11-20T02:41:42;6.60;84.90
46440;DHT22;32138;50.966;6.968;2022-11-20T02:42:43;6.70;84.80
46440;DHT22;32138;50.966;6.968;2022-11-20T02:43:43;6.60;84.50
46440;DHT22;32138;50.966;6.968;2022-11-20T02:44:44;6.60;84.80
46440;DHT22;32138;50.966;6.968;2022-11-20T02:45:45;6.60;85.20
46440;DHT22;32138;50.966;6.968;2022-11-20T02:46:45;6.50;84.80
46440;DHT22;32138;50.966;6.968;2022-11-20T02:47:46;6.40;84.90
46440;DHT22;32138;50.966;6.968;2022-11-20T02:48:47;6.50;85.10
46440;DHT22;32138;50.966;6.968;2022-11-20T02:49:48;6.50;85.00
46440;DHT22;32138;50.966;6.968;2022-11-20T02:50:48;6.70;84.90
46440;DHT22;32138;50.966;6.968;2022-11-20T02:51:49;6.60;84.80
46440;DHT22;32138;50.966;6.968;2022-11-20T02:52:50;6.60;84.60
46440;DHT22;32138;50.966;6.968;2022-11-20T02:53:50;6.60;84.70
46440;DHT22;32138;50.966;6.968;2022-11-20T02:54:52;6.60;84.70
46440;DHT22;32138;50.966;6.968;2022-11-20T02:55:53;6.70;85.30
46440;DHT22;32138;50.966;6.968;2022-11-20T02:56:54;6.60;85.10
46440;DHT22;32138;50.966;6.968;2022-11-20T02:57:54;6.50;84.60
46440;DHT22;32138;50.966;6.968;2022-11-20T02:58:56;6.30;84.50
46440;DHT22;32138;50.966;6.968;2022-11-20T02:59:56;6.30;85.00
46440;DHT22;32138;50.966;6.968;2022-11-20T03:00:57;6.20;85.30
46440;DHT22;32138;50.966;6.968;2022-11-20T03:01:58;6.30;85.70
46440;DHT22;32138;50.966;6.968;2022-11-20T03:02:58;6.40;85.70
46440;DHT22;32138;50.966;6.968;2022-11-20T03:03:59;6.50;85.50
46440;DHT22;32138;50.966;6.968;2022-11-20T03:05:00;6.60;85.10
46440;DHT22;32138;50.966;6.968;2022-11-20T03:06:01;6.50;84.60
46440;DHT22;32138;50.966;6.968;2022-11-20T03:07:03;6.40;85.20
46440;DHT22;32138;50.966;6.968;2022-11-20T03:08:04;6.40;85.20
46440;DHT22;32138;50.966;6.968;2022-11-20T03:09:04;6.40;85.20
46440;DHT22;32138;50.966;6.968;2022-11-20T03:10:06;6.60;84.70
46440;DHT22;32138;50.966;6.968;2022-11-20T03:11:08;6.60;85.30
46440;DHT22;32138;50.966;6.968;2022-11-20T03:12:08;6.70;84.80
46440;DHT22;32138;50.966;6.968;2022-11-20T03:13:09;6.60;84.90
46440;DHT22;32138;50.966;6.968;2022-11-20T03:14:10;6.50;84.70
46440;DHT22;32138;50.966;6.968;2022-11-20T03:15:11;6.50;85.20
46440;DHT22;32138;50.966;6.968;2022-11-20T03:16:17;6.50;85.30
46440;DHT22;32138;50.966;6.968;2022-11-20T03:17:20;6.40;85.20
46440;DHT22;32138;50.966;6.968;2022-11-20T03:18:20;6.40;85.10
46440;DHT22;32138;50.966;6.968;2022-11-20T03:19:21;6.50;85.80
46440;DHT22;32138;50.966;6.968;2022-11-20T03:20:23;6.70;85.20
46440;DHT22;32138;50.966;6.968;2022-11-20T03:21:24;6.80;85.10
46440;DHT22;32138;50.966;6.968;2022-11-20T03:22:24;6.60;83.70
46440;DHT22;32138;50.966;6.968;2022-11-20T03:23:25;6.60;84.20
46440;DHT22;32138;50.966;6.968;2022-11-20T03:24:26;6.60;84.50
46440;DHT22;32138;50.966;6.968;2022-11-20T03:25:27;6.40;85.00
46440;DHT22;32138;50.966;6.968;2022-11-20T03:26:29;6.60;85.00
46440;DHT22;32138;50.966;6.968;2022-11-20T03:27:33;6.60;84.60
46440;DHT22;32138;50.966;6.968;2022-11-20T03:28:34;6.50;85.00
46440;DHT22;32138;50.966;6.968;2022-11-20T03:29:35;6.40;85.30
46440;DHT22;32138;50.966;6.968;2022-11-20T03:30:36;6.50;85.40
46440;DHT22;32138;50.966;6.968;2022-11-20T03:31:38;6.50;85.50
46440;DHT22;32138;50.966;6.968;2022-11-20T03:32:43;6.60;85.20
46440;DHT22;32138;50.966;6.968;2022-11-20T03:33:44;6.60;85.20
46440;DHT22;32138;50.966;6.968;2022-11-20T03:34:45;6.60;85.30
46440;DHT22;32138;50.966;6.968;2022-11-20T03:35:45;6.60;85.40
46440;DHT22;32138;50.966;6.968;2022-11-20T03:36:46;6.50;85.50
46440;DHT22;32138;50.966;6.968;2022-11-20T03:37:47;6.60;85.30
46440;DHT22;32138;50.966;6.968;2022-11-20T03:38:49;6.70;85.10
46440;DHT22;32138;50.966;6.968;2022-11-20T03:39:49;6.50;85.50
46440;DHT22;32138;50.966;6.968;2022-11-20T03:40:50;6.40;85.60
46440;DHT22;32138;50.966;6.968;2022-11-20T03:41:51;6.40;86.30
46440;DHT22;32138;50.966;6.968;2022-11-20T03:42:52;6.40;85.70
46440;DHT22;32138;50.966;6.968;2022-11-20T03:43:57;6.30;86.00
46440;DHT22;32138;50.966;6.968;2022-11-20T03:44:59;6.30;86.40
46440;DHT22;32138;50.966;6.968;2022-11-20T03:46:00;6.50;86.30
46440;DHT22;32138;50.966;6.968;2022-11-20T03:47:01;6.60;86.20
46440;DHT22;32138;50.966;6.968;2022-11-20T03:48:02;6.40;85.90
46440;DHT22;32138;50.966;6.968;2022-11-20T03:49:03;6.40;86.20
46440;DHT22;32138;50.966;6.968;2022-11-20T03:50:04;6.60;86.10
46440;DHT22;32138;50.966;6.968;2022-11-20T03:51:44;6.50;86.20
46440;DHT22;32138;50.966;6.968;2022-11-20T03:52:38;6.40;86.00
46440;DHT22;32138;50.966;6.968;2022-11-20T03:53:40;6.50;86.20
46440;DHT22;32138;50.966;6.968;2022-11-20T03:54:43;6.70;86.60
46440;DHT22;32138;50.966;6.968;2022-11-20T03:55:44;6.70;86.00
46440;DHT22;32138;50.966;6.968;2022-11-20T03:56:45;6.60;85.80
46440;DHT22;32138;50.966;6.968;2022-11-20T03:57:45;6.60;86.10
46440;DHT22;32138;50.966;6.968;2022-11-20T03:58:46;6.60;86.00
46440;DHT22;32138;50.966;6.968;2022-11-20T03:59:47;6.70;86.10
46440;DHT22;32138;50.966;6.968;2022-11-20T04:00:47;6.70;86.30
46440;DHT22;32138;50.966;6.968;2022-11-20T04:01:48;6.70;86.50
46440;DHT22;32138;50.966;6.968;2022-11-20T04:02:49;6.80;86.70
46440;DHT22;32138;50.966;6.968;2022-11-20T04:03:52;6.90;86.20
46440;DHT22;32138;50.966;6.968;2022-11-20T04:04:54;6.90;86.10
46440;DHT22;32138;50.966;6.968;2022-11-20T04:05:55;6.90;86.00
46440;DHT22;32138;50.966;6.968;2022-11-20T04:06:55;6.90;86.20
46440;DHT22;32138;50.966;6.968;2022-11-20T04:07:56;7.00;86.10
46440;DHT22;32138;50.966;6.968;2022-11-20T04:08:58;7.00;85.90
46440;DHT22;32138;50.966;6.968;2022-11-20T04:09:59;6.90;86.20
46440;DHT22;32138;50.966;6.968;2022-11-20T04:11:19;7.00;86.20
46440;DHT22;32138;50.966;6.968;2022-11-20T04:12:21;7.00;85.90
46440;DHT22;32138;50.966;6.968;2022-11-20T04:13:22;7.00;86.30
46440;DHT22;32138;50.966;6.968;2022-11-20T04:14:23;7.00;86.40
46440;DHT22;32138;50.966;6.968;2022-11-20T04:15:24;7.00;86.30
46440;DHT22;32138;50.966;6.968;2022-11-20T04:16:25;7.20;86.10
46440;DHT22;32138;50.966;6.968;2022-11-20T04:17:27;7.10;86.00
46440;DHT22;32138;50.966;6.968;2022-11-20T04:18:28;7.10;86.00
46440;DHT22;32138;50.966;6.968;2022-11-20T04:19:29;7.10;86.10
46440;DHT22;32138;50.966;6.968;2022-11-20T04:20:29;7.10;85.80
46440;DHT22;32138;50.966;6.968;2022-11-20T04:21:30;7.10;85.60
46440;DHT22;32138;50.966;6.968;2022-11-20T04:22:31;6.90;85.70
46440;DHT22;32138;50.966;6.968;2022-11-20T04:23:32;6.80;86.20
46440;DHT22;32138;50.966;6.968;2022-11-20T04:24:33;6.70;86.50
46440;DHT22;32138;50.966;6.968;2022-11-20T04:25:33;6.60;86.90
46440;DHT22;32138;50.966;6.968;2022-11-20T04:26:34;6.60;87.20
46440;DHT22;32138;50.966;6.968;2022-11-20T04:27:35;6.50;87.00
46440;DHT22;32138;50.966;6.968;2022-11-20T04:28:36;6.60;87.20
46440;DHT22;32138;50.966;6.968;2022-11-20T04:29:37;6.70;87.10
46440;DHT22;32138;50.966;6.968;2022-11-20T04:30:38;6.70;87.80
46440;DHT22;32138;50.966;6.968;2022-11-20T04:31:39;6.80;87.00
46440;DHT22;32138;50.966;6.968;2022-11-20T04:32:39;6.80;86.80
46440;DHT22;32138;50.966;6.968;2022-11-20T04:33:40;6.80;86.70
46440;DHT22;32138;50.966;6.968;2022-11-20T04:34:41;6.80;86.90
46440;DHT22;32138;50.966;6.968;2022-11-20T04:35:42;6.80;87.10
46440;DHT22;32138;50.966;6.968;2022-11-20T04:36:43;6.80;86.90
46440;DHT22;32138;50.966;6.968;2022-11-20T04:37:44;6.80;87.20
46440;DHT22;32138;50.966;6.968;2022-11-20T04:38:45;6.80;87.10
46440;DHT22;32138;50.966;6.968;2022-11-20T04:39:46;6.80;87.10
46440;DHT22;32138;50.966;6.968;2022-11-20T04:40:47;6.90;87.30
46440;DHT22;32138;50.966;6.968;2022-11-20T04:41:47;7.00;87.20
46440;DHT22;32138;50.966;6.968;2022-11-20T04:42:48;7.00;87.20
46440;DHT22;32138;50.966;6.968;2022-11-20T04:43:50;7.00;87.00
46440;DHT22;32138;50.966;6.968;2022-11-20T04:44:53;7.00;87.10
46440;DHT22;32138;50.966;6.968;2022-11-20T04:45:54;7.00;87.30
46440;DHT22;32138;50.966;6.968;2022-11-20T04:46:55;7.00;87.40
46440;DHT22;32138;50.966;6.968;2022-11-20T04:47:56;7.10;87.40
46440;DHT22;32138;50.966;6.968;2022-11-20T04:48:57;7.10;87.10
46440;DHT22;32138;50.966;6.968;2022-11-20T04:49:58;7.10;87.00
46440;DHT22;32138;50.966;6.968;2022-11-20T04:51:03;7.10;87.20
46440;DHT22;32138;50.966;6.968;2022-11-20T04:52:04;7.20;87.40
46440;DHT22;32138;50.966;6.968;2022-11-20T04:53:05;7.20;87.10
46440;DHT22;32138;50.966;6.968;2022-11-20T04:54:06;7.20;87.10
46440;DHT22;32138;50.966;6.968;2022-11-20T04:55:07;7.10;87.00
46440;DHT22;32138;50.966;6.968;2022-11-20T04:56:10;7.10;87.20
46440;DHT22;32138;50.966;6.968;2022-11-20T04:57:12;7.20;87.10
46440;DHT22;32138;50.966;6.968;2022-11-20T04:58:13;7.20;87.20
46440;DHT22;32138;50.966;6.968;2022-11-20T04:59:14;7.20;87.10
46440;DHT22;32138;50.966;6.968;2022-11-20T05:00:15;7.20;87.20
46440;DHT22;32138;50.966;6.968;2022-11-20T05:01:22;7.30;87.50
46440;DHT22;32138;50.966;6.968;2022-11-20T05:02:23;7.30;87.00
46440;DHT22;32138;50.966;6.968;2022-11-20T05:03:24;7.20;87.10
46440;DHT22;32138;50.966;6.968;2022-11-20T05:04:25;7.10;87.30
46440;DHT22;32138;50.966;6.968;2022-11-20T05:05:25;7.20;87.50
46440;DHT22;32138;50.966;6.968;2022-11-20T05:06:26;7.20;87.30
46440;DHT22;32138;50.966;6.968;2022-11-20T05:07:27;7.20;87.30
46440;DHT22;32138;50.966;6.968;2022-11-20T05:08:29;7.30;87.30
46440;DHT22;32138;50.966;6.968;2022-11-20T05:09:30;7.30;87.20
46440;DHT22;32138;50.966;6.968;2022-11-20T05:10:31;7.20;87.30
46440;DHT22;32138;50.966;6.968;2022-11-20T05:11:32;7.20;87.70
46440;DHT22;32138;50.966;6.968;2022-11-20T05:12:32;7.20;87.50
46440;DHT22;32138;50.966;6.968;2022-11-20T05:13:33;7.30;87.50
46440;DHT22;32138;50.966;6.968;2022-11-20T05:14:34;7.40;87.20
46440;DHT22;32138;50.966;6.968;2022-11-20T05:15:35;7.30;87.00
46440;DHT22;32138;50.966;6.968;2022-11-20T05:16:36;7.30;87.20
46440;DHT22;32138;50.966;6.968;2022-11-20T05:17:36;7.30;87.40
46440;DHT22;32138;50.966;6.968;2022-11-20T05:18:38;7.30;87.30
46440;DHT22;32138;50.966;6.968;2022-11-20T05:19:39;7.40;87.50
46440;DHT22;32138;50.966;6.968;2022-11-20T05:20:40;7.30;87.20
46440;DHT22;32138;50.966;6.968;2022-11-20T05:21:40;7.30;87.40
46440;DHT22;32138;50.966;6.968;2022-11-20T05:22:41;7.30;87.60
46440;DHT22;32138;50.966;6.968;2022-11-20T05:23:43;7.30;87.50
46440;DHT22;32138;50.966;6.968;2022-11-20T05:24:45;7.30;87.50
46440;DHT22;32138;50.966;6.968;2022-11-20T05:25:45;7.40;87.50
46440;DHT22;32138;50.966;6.968;2022-11-20T05:26:46;7.40;87.40
46440;DHT22;32138;50.966;6.968;2022-11-20T05:27:47;7.40;87.30
46440;DHT22;32138;50.966;6.968;2022-11-20T05:28:48;7.40;87.20
46440;DHT22;32138;50.966;6.968;2022-11-20T05:29:49;7.40;87.20
46440;DHT22;32138;50.966;6.968;2022-11-20T05:30:50;7.30;87.20
46440;DHT22;32138;50.966;6.968;2022-11-20T05:31:51;7.30;87.40
46440;DHT22;32138;50.966;6.968;2022-11-20T05:32:52;7.30;87.40
46440;DHT22;32138;50.966;6.968;2022-11-20T05:33:53;7.40;87.20
46440;DHT22;32138;50.966;6.968;2022-11-20T05:34:55;7.40;87.00
46440;DHT22;32138;50.966;6.968;2022-11-20T05:35:58;7.40;87.20
46440;DHT22;32138;50.966;6.968;2022-11-20T05:36:59;7.50;87.10
46440;DHT22;32138;50.966;6.968;2022-11-20T05:38:00;7.50;86.70
46440;DHT22;32138;50.966;6.968;2022-11-20T05:39:00;7.30;87.00
46440;DHT22;32138;50.966;6.968;2022-11-20T05:40:01;7.20;87.20
46440;DHT22;32138;50.966;6.968;2022-11-20T05:41:16;7.30;87.60
46440;DHT22;32138;50.966;6.968;2022-11-20T05:42:18;7.40;87.50
46440;DHT22;32138;50.966;6.968;2022-11-20T05:43:32;7.40;87.50
46440;DHT22;32138;50.966;6.968;2022-11-20T05:44:34;7.50;87.30
46440;DHT22;32138;50.966;6.968;2022-11-20T05:45:35;7.40;87.10
46440;DHT22;32138;50.966;6.968;2022-11-20T05:46:36;7.40;86.80
46440;DHT22;32138;50.966;6.968;2022-11-20T05:47:36;7.50;86.90
46440;DHT22;32138;50.966;6.968;2022-11-20T05:48:38;7.50;86.80
46440;DHT22;32138;50.966;6.968;2022-11-20T05:49:40;7.50;86.80
46440;DHT22;32138;50.966;6.968;2022-11-20T05:50:40;7.50;86.70
46440;DHT22;32138;50.966;6.968;2022-11-20T05:51:41;7.50;86.70
46440;DHT22;32138;50.966;6.968;2022-11-20T05:52:42;7.50;86.60
46440;DHT22;32138;50.966;6.968;2022-11-20T05:53:43;7.50;86.60
46440;DHT22;32138;50.966;6.968;2022-11-20T05:54:44;7.60;86.70
46440;DHT22;32138;50.966;6.968;2022-11-20T05:55:45;7.60;86.70
46440;DHT22;32138;50.966;6.968;2022-11-20T05:56:45;7.60;86.70
46440;DHT22;32138;50.966;6.968;2022-11-20T05:57:46;7.60;86.40
46440;DHT22;32138;50.966;6.968;2022-11-20T05:58:48;7.50;86.70
46440;DHT22;32138;50.966;6.968;2022-11-20T05:59:49;7.60;86.70
46440;DHT22;32138;50.966;6.968;2022-11-20T06:00:50;7.50;86.60
46440;DHT22;32138;50.966;6.968;2022-11-20T06:01:51;7.50;86.60
46440;DHT22;32138;50.966;6.968;2022-11-20T06:02:51;7.40;86.90
46440;DHT22;32138;50.966;6.968;2022-11-20T06:03:53;7.50;87.10
46440;DHT22;32138;50.966;6.968;2022-11-20T06:04:54;7.50;87.10
46440;DHT22;32138;50.966;6.968;2022-11-20T06:05:55;7.50;87.00
46440;DHT22;32138;50.966;6.968;2022-11-20T06:06:56;7.50;87.10
46440;DHT22;32138;50.966;6.968;2022-11-20T06:07:57;7.50;86.60
46440;DHT22;32138;50.966;6.968;2022-11-20T06:08:57;7.40;86.70
46440;DHT22;32138;50.966;6.968;2022-11-20T06:09:59;7.40;87.10
46440;DHT22;32138;50.966;6.968;2022-11-20T06:11:07;7.40;86.90
46440;DHT22;32138;50.966;6.968;2022-11-20T06:12:09;7.40;87.50
46440;DHT22;32138;50.966;6.968;2022-11-20T06:13:09;7.50;87.20
46440;DHT22;32138;50.966;6.968;2022-11-20T06:14:10;7.50;86.90
46440;DHT22;32138;50.966;6.968;2022-11-20T06:15:11;7.60;86.90
46440;DHT22;32138;50.966;6.968;2022-11-20T06:16:14;7.60;86.90
46440;DHT22;32138;50.966;6.968;2022-11-20T06:17:16;7.60;86.50
46440;DHT22;32138;50.966;6.968;2022-11-20T06:18:17;7.50;87.00
46440;DHT22;32138;50.966;6.968;2022-11-20T06:19:18;7.50;87.80
46440;DHT22;32138;50.966;6.968;2022-11-20T06:20:19;7.60;87.20
46440;DHT22;32138;50.966;6.968;2022-11-20T06:21:21;7.50;87.20
46440;DHT22;32138;50.966;6.968;2022-11-20T06:22:23;7.50;87.30
46440;DHT22;32138;50.966;6.968;2022-11-20T06:23:23;7.50;87.30
46440;DHT22;32138;50.966;6.968;2022-11-20T06:24:24;7.50;86.90
46440;DHT22;32138;50.966;6.968;2022-11-20T06:25:25;7.50;87.20
46440;DHT22;32138;50.966;6.968;2022-11-20T06:26:27;7.40;86.80
46440;DHT22;32138;50.966;6.968;2022-11-20T06:27:28;7.40;86.70
46440;DHT22;32138;50.966;6.968;2022-11-20T06:28:28;7.30;86.70
46440;DHT22;32138;50.966;6.968;2022-11-20T06:29:29;7.30;87.10
46440;DHT22;32138;50.966;6.968;2022-11-20T06:30:30;7.50;87.00
46440;DHT22;32138;50.966;6.968;2022-11-20T06:31:30;7.50;86.50
46440;DHT22;32138;50.966;6.968;2022-11-20T06:32:35;7.50;86.40
46440;DHT22;32138;50.966;6.968;2022-11-20T06:33:35;7.50;86.40
46440;DHT22;32138;50.966;6.968;2022-11-20T06:34:37;7.50;86.60
46440;DHT22;32138;50.966;6.968;2022-11-20T06:35:38;7.50;86.60
46440;DHT22;32138;50.966;6.968;2022-11-20T06:36:38;7.50;86.60
46440;DHT22;32138;50.966;6.968;2022-11-20T06:37:39;7.50;86.50
46440;DHT22;32138;50.966;6.968;2022-11-20T06:38:40;7.40;86.60
46440;DHT22;32138;50.966;6.968;2022-11-20T06:39:41;7.40;86.60
46440;DHT22;32138;50.966;6.968;2022-11-20T06:40:42;7.20;86.90
46440;DHT22;32138;50.966;6.968;2022-11-20T06:41:43;7.10;87.40
46440;DHT22;32138;50.966;6.968;2022-11-20T06:42:44;7.20;88.30
46440;DHT22;32138;50.966;6.968;2022-11-20T06:43:45;7.20;87.60
46440;DHT22;32138;50.966;6.968;2022-11-20T06:44:45;7.20;87.50
46440;DHT22;32138;50.966;6.968;2022-11-20T06:45:50;7.20;87.40